createdAt,value
2018-08-13T00:01:26.571Z,41.60
2018-08-13T00:03:55.180Z,41.60
2018-08-13T00:06:23.754Z,42.30
2018-08-13T00:08:52.308Z,41.60
2018-08-13T00:11:20.938Z,41.60
2018-08-13T00:13:49.506Z,41.60
2018-08-13T00:16:48.751Z,41.60
2018-08-13T00:19:17.348Z,41.60
2018-08-13T00:21:45.896Z,41.60
2018-08-13T00:24:14.431Z,41.60
2018-08-13T00:26:43.015Z,41.60
2018-08-13T00:29:11.611Z,41.60
2018-08-13T00:31:40.159Z,41.60
2018-08-13T00:34:08.717Z,41.60
2018-08-13T00:36:37.253Z,41.60
2018-08-13T00:39:08.912Z,41.60
2018-08-13T00:41:37.959Z,41.50
2018-08-13T00:44:06.604Z,41.50
2018-08-13T00:46:35.305Z,41.50
2018-08-13T00:49:04.858Z,41.50
2018-08-13T00:51:33.819Z,41.50
2018-08-13T00:54:02.406Z,41.50
2018-08-13T00:57:01.711Z,41.40
2018-08-13T00:59:30.276Z,40.90
2018-08-13T01:01:58.838Z,41.60
2018-08-13T01:04:27.415Z,41.60
2018-08-13T01:06:56.037Z,41.40
2018-08-13T01:09:24.654Z,41.50
2018-08-13T01:11:53.230Z,41.50
2018-08-13T01:14:21.813Z,41.50
2018-08-13T01:16:50.352Z,41.50
2018-08-13T01:19:18.954Z,41.40
2018-08-13T01:21:47.552Z,41.40
2018-08-13T01:24:16.139Z,41.40
2018-08-13T01:26:44.713Z,41.40
2018-08-13T01:29:13.279Z,41.40
2018-08-13T01:31:41.815Z,41.50
2018-08-13T01:34:10.562Z,41.50
2018-08-13T01:36:39.144Z,41.40
2018-08-13T01:39:09.405Z,41.40
2018-08-13T01:41:38.023Z,41.40
2018-08-13T01:44:06.983Z,41.40
2018-08-13T01:46:35.703Z,41.40
2018-08-13T01:49:04.498Z,41.40
2018-08-13T01:51:33.103Z,41.40
2018-08-13T01:54:01.683Z,41.40
2018-08-13T01:56:30.252Z,41.40
2018-08-13T01:58:58.852Z,41.40
2018-08-13T02:01:27.618Z,41.50
2018-08-13T02:03:56.132Z,41.50
2018-08-13T02:06:24.706Z,41.50
2018-08-13T02:08:53.251Z,41.40
2018-08-13T02:11:21.802Z,41.50
2018-08-13T02:13:50.349Z,41.50
2018-08-13T02:16:18.950Z,41.50
2018-08-13T02:18:47.523Z,41.50
2018-08-13T02:21:16.066Z,41.50
2018-08-13T02:23:44.625Z,41.60
2018-08-13T02:26:13.242Z,41.60
2018-08-13T02:28:41.796Z,41.60
2018-08-13T02:31:10.378Z,41.60
2018-08-13T02:33:38.960Z,41.70
2018-08-13T02:36:07.592Z,41.60
2018-08-13T02:38:36.167Z,41.70
2018-08-13T02:41:04.772Z,41.80
2018-08-13T02:43:33.311Z,41.80
2018-08-13T02:46:01.860Z,41.70
2018-08-13T02:48:30.458Z,42.00
2018-08-13T02:50:59.064Z,41.90
2018-08-13T02:53:27.655Z,42.00
2018-08-13T02:55:56.204Z,42.00
2018-08-13T02:58:24.783Z,41.80
2018-08-13T03:00:53.472Z,41.70
2018-08-13T03:03:22.016Z,41.70
2018-08-13T03:05:50.564Z,41.80
2018-08-13T03:08:19.090Z,41.70
2018-08-13T03:10:47.638Z,41.80
2018-08-13T03:13:16.245Z,41.80
2018-08-13T03:15:44.904Z,41.70
2018-08-13T03:18:13.455Z,41.50
2018-08-13T03:20:42.023Z,41.60
2018-08-13T03:23:10.630Z,41.70
2018-08-13T03:25:39.175Z,41.70
2018-08-13T03:28:07.755Z,41.60
2018-08-13T03:30:36.397Z,41.60
2018-08-13T03:33:05.122Z,41.80
2018-08-13T03:35:33.673Z,41.10
2018-08-13T03:38:02.219Z,41.50
2018-08-13T03:40:30.879Z,41.60
2018-08-13T03:42:59.456Z,41.10
2018-08-13T03:45:27.997Z,41.80
2018-08-13T03:47:56.550Z,41.60
2018-08-13T03:50:25.107Z,41.70
2018-08-13T03:52:53.640Z,41.70
2018-08-13T03:55:22.235Z,41.70
2018-08-13T03:57:50.810Z,41.60
2018-08-13T04:00:19.367Z,41.60
2018-08-13T04:02:47.905Z,41.50
2018-08-13T04:05:16.504Z,41.60
2018-08-13T04:07:45.111Z,41.60
2018-08-13T04:10:14.042Z,41.60
2018-08-13T04:12:43.633Z,41.60
2018-08-13T04:15:13.617Z,41.50
2018-08-13T04:17:42.690Z,41.60
2018-08-13T04:20:12.504Z,41.60
2018-08-13T04:22:41.154Z,42.20
2018-08-13T04:25:10.486Z,41.60
2018-08-13T04:27:39.799Z,41.60
2018-08-13T04:30:11.681Z,41.50
2018-08-13T04:32:40.551Z,41.50
2018-08-13T04:35:09.144Z,41.60
2018-08-13T04:37:37.668Z,41.60
2018-08-13T04:40:08.517Z,41.50
2018-08-13T04:42:37.134Z,42.10
2018-08-13T04:45:06.502Z,41.50
2018-08-13T04:47:35.147Z,41.50
2018-08-13T04:50:04.123Z,41.50
2018-08-13T04:52:32.725Z,41.60
2018-08-13T04:55:01.314Z,41.60
2018-08-13T04:57:29.828Z,41.60
2018-08-13T04:59:58.382Z,41.60
2018-08-13T05:02:26.955Z,41.60
2018-08-13T05:04:55.809Z,41.70
2018-08-13T05:07:24.505Z,41.70
2018-08-13T05:09:53.001Z,41.70
2018-08-13T05:12:21.523Z,41.80
2018-08-13T05:14:50.086Z,41.80
2018-08-13T05:17:18.690Z,43.10
2018-08-13T05:19:47.247Z,43.50
2018-08-13T05:22:15.826Z,41.60
2018-08-13T05:24:44.708Z,41.70
2018-08-13T05:27:13.267Z,41.50
2018-08-13T05:29:41.883Z,41.70
2018-08-13T05:32:10.416Z,41.70
2018-08-13T05:34:38.989Z,41.70
2018-08-13T05:37:08.903Z,41.90
2018-08-13T05:39:37.542Z,41.90
2018-08-13T05:42:06.919Z,41.90
2018-08-13T05:44:35.948Z,42.00
2018-08-13T05:47:25.200Z,42.00
2018-08-13T05:49:55.181Z,42.00
2018-08-13T05:52:23.786Z,42.00
2018-08-13T05:54:52.373Z,42.10
2018-08-13T05:57:20.907Z,42.10
2018-08-13T05:59:49.473Z,42.10
2018-08-13T06:02:18.118Z,42.10
2018-08-13T06:04:46.808Z,42.10
2018-08-13T06:07:15.414Z,42.10
2018-08-13T06:09:43.958Z,42.10
2018-08-13T06:12:12.536Z,42.20
2018-08-13T06:14:41.073Z,42.20
2018-08-13T06:17:09.627Z,42.20
2018-08-13T06:19:38.217Z,42.30
2018-08-13T06:22:06.779Z,42.30
2018-08-13T06:24:35.334Z,42.30
2018-08-13T06:27:03.958Z,42.20
2018-08-13T06:29:32.500Z,42.30
2018-08-13T06:32:01.031Z,42.40
2018-08-13T06:34:30.922Z,42.30
2018-08-13T06:36:59.475Z,42.40
2018-08-13T06:39:28.016Z,42.50
2018-08-13T06:41:56.567Z,42.40
2018-08-13T06:44:25.095Z,42.40
2018-08-13T06:46:53.690Z,42.40
2018-08-13T06:49:22.259Z,42.40
2018-08-13T06:51:50.824Z,42.60
2018-08-13T06:54:19.530Z,43.00
2018-08-13T06:56:48.111Z,42.70
2018-08-13T06:59:16.676Z,42.90
2018-08-13T07:01:45.250Z,42.70
2018-08-13T07:04:13.855Z,43.30
2018-08-13T07:06:42.444Z,42.40
2018-08-13T07:09:11.706Z,42.90
2018-08-13T07:11:40.258Z,42.90
2018-08-13T07:14:08.921Z,42.80
2018-08-13T07:16:37.667Z,43.00
2018-08-13T07:19:06.299Z,42.80
2018-08-13T07:21:34.852Z,42.80
2018-08-13T07:24:03.418Z,42.80
2018-08-13T07:26:31.980Z,42.80
2018-08-13T07:29:00.527Z,42.90
2018-08-13T07:31:29.156Z,42.80
2018-08-13T07:33:57.703Z,42.80
2018-08-13T07:36:26.266Z,42.80
2018-08-13T07:38:54.912Z,42.80
2018-08-13T07:41:23.500Z,42.80
2018-08-13T07:43:52.059Z,42.90
2018-08-13T07:46:20.721Z,42.70
2018-08-13T07:48:49.316Z,42.70
2018-08-13T07:51:17.851Z,42.60
2018-08-13T07:53:46.380Z,42.70
2018-08-13T07:56:14.924Z,42.70
2018-08-13T07:58:43.532Z,42.80
2018-08-13T08:01:12.069Z,42.70
2018-08-13T08:03:40.675Z,42.60
2018-08-13T08:06:09.226Z,42.50
2018-08-13T08:08:37.801Z,42.40
2018-08-13T08:11:06.386Z,42.10
2018-08-13T08:13:35.497Z,42.20
2018-08-13T08:16:04.063Z,42.00
2018-08-13T08:18:32.676Z,41.90
2018-08-13T08:21:01.398Z,41.60
2018-08-13T08:23:29.967Z,41.40
2018-08-13T08:25:58.532Z,41.80
2018-08-13T08:28:27.078Z,42.30
2018-08-13T08:30:55.615Z,41.30
2018-08-13T08:33:24.193Z,41.10
2018-08-13T08:35:52.723Z,40.80
2018-08-13T08:38:21.255Z,41.10
2018-08-13T08:40:49.942Z,40.50
2018-08-13T08:43:18.434Z,39.70
2018-08-13T08:45:46.986Z,39.60
2018-08-13T08:48:15.588Z,39.30
2018-08-13T08:50:44.135Z,40.40
2018-08-13T08:53:12.671Z,40.20
2018-08-13T08:55:41.267Z,39.70
2018-08-13T08:58:09.823Z,40.00
2018-08-13T09:00:38.353Z,40.20
2018-08-13T09:03:06.924Z,40.40
2018-08-13T09:05:35.471Z,39.10
2018-08-13T09:08:04.044Z,40.40
2018-08-13T09:10:32.630Z,40.40
2018-08-13T09:13:01.195Z,39.80
2018-08-13T09:15:29.795Z,38.60
2018-08-13T09:20:16.035Z,39.20
2018-08-13T09:22:55.598Z,38.50
2018-08-13T09:25:35.327Z,39.50
2018-08-13T09:30:20.487Z,39.90
2018-08-13T09:33:00.196Z,39.30
2018-08-13T09:35:33.069Z,38.80
2018-08-13T09:38:01.675Z,38.60
2018-08-13T09:40:31.478Z,38.90
2018-08-13T09:43:00.019Z,38.90
2018-08-13T09:45:28.573Z,39.20
2018-08-13T09:47:57.367Z,39.50
2018-08-13T09:50:26.487Z,39.80
2018-08-13T09:52:55.078Z,39.30
2018-08-13T09:55:23.648Z,39.90
2018-08-13T09:57:52.372Z,39.70
2018-08-13T10:00:26.711Z,39.60
2018-08-13T10:02:55.239Z,39.80
2018-08-13T10:05:23.795Z,39.70
2018-08-13T10:07:52.378Z,39.80
2018-08-13T10:10:20.939Z,39.90
2018-08-13T10:12:49.493Z,40.00
2018-08-13T10:15:18.031Z,40.00
2018-08-13T10:17:46.672Z,39.10
2018-08-13T10:20:17.589Z,39.60
2018-08-13T10:22:46.484Z,39.40
2018-08-13T10:25:15.060Z,39.30
2018-08-13T10:27:43.715Z,39.20
2018-08-13T10:30:13.894Z,38.90
2018-08-13T10:32:42.434Z,38.10
2018-08-13T10:35:11.135Z,36.80
2018-08-13T10:37:40.432Z,37.40
2018-08-13T10:40:13.755Z,37.30
2018-08-13T10:42:42.345Z,37.40
2018-08-13T10:45:10.881Z,37.50
2018-08-13T10:47:39.415Z,37.70
2018-08-13T10:50:09.405Z,37.90
2018-08-13T10:52:38.279Z,38.10
2018-08-13T10:55:07.215Z,38.40
2018-08-13T10:57:35.758Z,38.20
2018-08-13T11:00:05.858Z,37.50
2018-08-13T11:02:35.078Z,38.10
2018-08-13T11:05:04.803Z,38.50
2018-08-13T11:07:33.418Z,38.30
2018-08-13T11:10:02.004Z,38.20
2018-08-13T11:12:30.582Z,38.20
2018-08-13T11:14:59.126Z,38.20
2018-08-13T11:17:27.702Z,37.80
2018-08-13T11:19:56.266Z,37.10
2018-08-13T11:22:24.849Z,37.30
2018-08-13T11:24:53.483Z,36.30
2018-08-13T11:27:22.940Z,35.80
2018-08-13T11:30:22.004Z,36.10
2018-08-13T11:32:50.647Z,35.40
2018-08-13T11:35:19.218Z,35.90
2018-08-13T11:37:47.799Z,35.60
2018-08-13T11:40:17.808Z,35.60
2018-08-13T11:42:46.398Z,35.60
2018-08-13T11:45:14.963Z,35.50
2018-08-13T11:47:43.547Z,35.50
2018-08-13T11:50:15.935Z,35.40
2018-08-13T11:52:46.595Z,35.30
2018-08-13T11:55:15.555Z,35.10
2018-08-13T11:57:44.173Z,36.00
2018-08-13T12:00:13.293Z,35.80
2018-08-13T12:02:41.827Z,36.10
2018-08-13T12:05:12.257Z,35.90
2018-08-13T12:07:40.987Z,36.60
2018-08-13T12:10:10.644Z,36.90
2018-08-13T12:12:39.897Z,37.00
2018-08-13T12:15:09.452Z,37.20
2018-08-13T12:17:38.099Z,37.20
2018-08-13T12:20:09.179Z,37.10
2018-08-13T12:22:38.610Z,37.30
2018-08-13T12:25:07.703Z,37.40
2018-08-13T12:27:36.287Z,37.40
2018-08-13T12:30:07.448Z,37.60
2018-08-13T12:32:36.045Z,37.50
2018-08-13T12:35:05.378Z,37.40
2018-08-13T12:37:33.955Z,37.50
2018-08-13T12:40:02.783Z,37.70
2018-08-13T12:42:31.349Z,37.50
2018-08-13T12:44:59.887Z,37.60
2018-08-13T12:47:28.437Z,37.00
2018-08-13T12:49:57.088Z,37.50
2018-08-13T12:52:25.670Z,37.60
2018-08-13T12:54:54.243Z,37.60
2018-08-13T12:57:22.809Z,37.70
2018-08-13T12:59:51.359Z,37.80
2018-08-13T13:02:19.911Z,37.80
2018-08-13T13:04:48.467Z,37.90
2018-08-13T13:07:17.037Z,38.00
2018-08-13T13:10:17.336Z,37.90
2018-08-13T13:12:46.004Z,37.90
2018-08-13T13:15:16.257Z,38.00
2018-08-13T13:17:44.860Z,38.10
2018-08-13T13:20:18.947Z,38.20
2018-08-13T13:22:48.117Z,38.40
2018-08-13T13:25:17.172Z,38.50
2018-08-13T13:27:45.790Z,38.60
2018-08-13T13:30:15.329Z,38.90
2018-08-13T13:32:44.156Z,38.90
2018-08-13T13:35:14.263Z,39.00
2018-08-13T13:37:42.874Z,39.30
2018-08-13T13:40:12.978Z,39.40
2018-08-13T13:42:41.654Z,39.50
2018-08-13T13:45:11.135Z,39.90
2018-08-13T13:47:39.735Z,39.80
2018-08-13T13:50:10.269Z,39.90
2018-08-13T13:52:38.805Z,40.20
2018-08-13T13:55:07.785Z,40.60
2018-08-13T13:57:36.863Z,41.00
2018-08-13T14:00:10.027Z,41.40
2018-08-13T14:02:38.607Z,42.30
2018-08-13T14:05:07.467Z,42.00
2018-08-13T14:07:36.267Z,43.00
2018-08-13T14:10:05.861Z,42.60
2018-08-13T14:12:34.451Z,42.50
2018-08-13T14:15:03.905Z,42.50
2018-08-13T14:17:32.673Z,41.90
2018-08-13T14:20:01.326Z,41.70
2018-08-13T14:22:29.908Z,41.10
2018-08-13T14:24:58.581Z,41.70
2018-08-13T14:27:27.303Z,41.20
2018-08-13T14:29:55.896Z,41.80
2018-08-13T14:32:24.567Z,41.80
2018-08-13T14:34:53.508Z,41.90
2018-08-13T14:37:22.552Z,41.80
2018-08-13T14:39:58.265Z,41.80
2018-08-13T14:42:28.325Z,41.80
2018-08-13T14:44:57.739Z,41.30
2018-08-13T14:47:26.343Z,41.90
2018-08-13T14:49:56.114Z,41.90
2018-08-13T14:52:25.208Z,42.00
2018-08-13T14:54:53.787Z,42.00
2018-08-13T14:57:22.532Z,42.00
2018-08-13T14:59:51.159Z,41.60
2018-08-13T15:02:19.739Z,42.30
2018-08-13T15:04:48.639Z,42.50
2018-08-13T15:07:17.170Z,42.70
2018-08-13T15:09:46.830Z,42.70
2018-08-13T15:12:15.895Z,42.70
2018-08-13T15:14:44.461Z,42.80
2018-08-13T15:17:13.064Z,44.50
2018-08-13T15:19:41.659Z,45.00
2018-08-13T15:22:10.331Z,45.00
2018-08-13T15:24:40.496Z,43.80
2018-08-13T15:27:10.295Z,44.80
2018-08-13T15:29:38.895Z,46.40
2018-08-13T15:32:09.570Z,47.10
2018-08-13T15:34:39.396Z,47.00
2018-08-13T15:37:07.958Z,46.40
2018-08-13T15:39:36.538Z,46.20
2018-08-13T15:42:05.117Z,46.20
2018-08-13T15:44:33.639Z,46.10
2018-08-13T15:47:16.867Z,45.90
2018-08-13T15:49:45.395Z,45.80
2018-08-13T15:52:13.964Z,45.70
2018-08-13T15:54:42.499Z,45.50
2018-08-13T15:57:11.147Z,45.40
2018-08-13T15:59:39.830Z,45.30
2018-08-13T16:02:08.418Z,45.20
2018-08-13T16:04:36.997Z,45.00
2018-08-13T16:07:08.139Z,45.00
2018-08-13T16:09:36.680Z,44.90
2018-08-13T16:12:05.259Z,44.80
2018-08-13T16:14:33.819Z,44.70
2018-08-13T16:17:02.418Z,44.70
2018-08-13T16:19:44.110Z,44.60
2018-08-13T16:22:14.287Z,44.00
2018-08-13T16:24:46.351Z,44.80
2018-08-13T16:27:16.111Z,44.70
2018-08-13T16:29:49.818Z,44.60
2018-08-13T16:32:20.431Z,44.60
2018-08-13T16:34:50.227Z,44.50
2018-08-13T16:37:22.543Z,44.50
2018-08-13T16:39:51.083Z,44.50
2018-08-13T16:42:19.655Z,44.50
2018-08-13T16:44:54.421Z,44.50
2018-08-13T16:47:24.876Z,44.70
2018-08-13T16:49:59.519Z,44.10
2018-08-13T16:52:30.356Z,44.70
2018-08-13T16:54:59.146Z,44.70
2018-08-13T16:57:28.422Z,44.70
2018-08-13T16:59:59.979Z,44.70
2018-08-13T17:02:30.045Z,44.70
2018-08-13T17:04:58.616Z,44.70
2018-08-13T17:07:27.452Z,44.70
2018-08-13T17:09:56.055Z,44.60
2018-08-13T17:12:24.588Z,44.70
2018-08-13T17:14:53.163Z,44.70
2018-08-13T17:17:21.752Z,44.70
2018-08-13T17:19:50.335Z,44.70
2018-08-13T17:22:18.948Z,44.20
2018-08-13T17:24:47.509Z,44.80
2018-08-13T17:27:16.078Z,44.70
2018-08-13T17:29:44.632Z,44.70
2018-08-13T17:32:13.211Z,44.70
2018-08-13T17:34:41.747Z,44.70
2018-08-13T17:37:10.330Z,44.80
2018-08-13T17:39:38.876Z,44.80
2018-08-13T17:42:07.445Z,44.80
2018-08-13T17:44:36.012Z,44.80
2018-08-13T17:47:05.019Z,44.80
2018-08-13T17:49:33.576Z,44.80
2018-08-13T17:52:02.148Z,44.80
2018-08-13T17:54:30.718Z,44.80
2018-08-13T17:56:59.347Z,44.90
2018-08-13T17:59:27.918Z,44.80
2018-08-13T18:01:56.565Z,44.90
2018-08-13T18:04:25.039Z,44.90
2018-08-13T18:06:53.592Z,44.90
2018-08-13T18:09:22.347Z,44.90
2018-08-13T18:11:50.894Z,44.90
2018-08-13T18:14:19.479Z,45.20
2018-08-13T18:16:48.034Z,45.90
2018-08-13T18:19:16.609Z,47.10
2018-08-13T18:21:45.197Z,44.80
2018-08-13T18:24:13.772Z,44.30
2018-08-13T18:26:42.308Z,45.30
2018-08-13T18:29:10.872Z,45.20
2018-08-13T18:31:39.485Z,44.90
2018-08-13T18:34:08.360Z,44.80
2018-08-13T18:36:36.940Z,44.70
2018-08-13T18:39:07.141Z,44.60
2018-08-13T18:41:35.712Z,44.50
2018-08-13T18:44:11.080Z,44.20
2018-08-13T18:46:39.759Z,44.50
2018-08-13T18:49:08.363Z,44.10
2018-08-13T18:51:36.951Z,44.10
2018-08-13T18:54:05.506Z,45.20
2018-08-13T18:56:34.085Z,44.50
2018-08-13T18:59:02.661Z,44.50
2018-08-13T19:01:31.415Z,44.60
2018-08-13T19:04:00.067Z,44.60
2018-08-13T19:06:28.632Z,44.70
2018-08-13T19:08:57.862Z,44.70
2018-08-13T19:11:26.479Z,44.60
2018-08-13T19:13:55.047Z,44.50
2018-08-13T19:16:23.583Z,44.40
2018-08-13T19:18:52.120Z,44.40
2018-08-13T19:21:20.643Z,44.30
2018-08-13T19:23:49.291Z,44.10
2018-08-13T19:26:17.902Z,44.50
2018-08-13T19:28:46.523Z,44.50
2018-08-13T19:31:15.697Z,44.40
2018-08-13T19:33:44.390Z,44.40
2018-08-13T19:36:12.932Z,44.40
2018-08-13T19:38:41.496Z,44.60
2018-08-13T19:41:10.089Z,44.80
2018-08-13T19:43:38.667Z,44.80
2018-08-13T19:46:07.544Z,44.80
2018-08-13T19:48:36.018Z,44.80
2018-08-13T19:51:04.616Z,44.90
2018-08-13T19:53:33.268Z,44.80
2018-08-13T19:56:01.882Z,45.00
2018-08-13T19:58:30.468Z,44.90
2018-08-13T20:00:59.055Z,45.10
2018-08-13T20:03:27.639Z,45.00
2018-08-13T20:05:56.221Z,44.80
2018-08-13T20:08:24.773Z,44.90
2018-08-13T20:10:53.342Z,45.00
2018-08-13T20:13:21.898Z,45.00
2018-08-13T20:15:50.467Z,45.10
2018-08-13T20:18:19.021Z,45.10
2018-08-13T20:20:47.600Z,45.20
2018-08-13T20:23:16.143Z,45.20
2018-08-13T20:25:44.712Z,45.30
2018-08-13T20:28:13.264Z,45.30
2018-08-13T20:30:41.846Z,45.30
2018-08-13T20:33:10.491Z,45.50
2018-08-13T20:35:39.079Z,45.30
2018-08-13T20:38:07.666Z,45.30
2018-08-13T20:40:36.208Z,45.40
2018-08-13T20:43:04.763Z,45.40
2018-08-13T20:45:33.370Z,45.40
2018-08-13T20:48:01.929Z,45.40
2018-08-13T20:50:30.480Z,45.50
2018-08-13T20:52:59.063Z,45.50
2018-08-13T20:55:28.866Z,45.50
2018-08-13T20:57:57.487Z,45.50
2018-08-13T21:00:27.706Z,45.60
2018-08-13T21:02:56.240Z,45.50
2018-08-13T21:05:24.834Z,45.60
2018-08-13T21:07:53.388Z,45.60
2018-08-13T21:10:23.439Z,45.50
2018-08-13T21:12:52.177Z,45.60
2018-08-13T21:15:20.770Z,45.60
2018-08-13T21:17:49.396Z,45.60
2018-08-13T21:20:26.631Z,45.60
2018-08-13T21:22:55.495Z,45.60
2018-08-13T21:25:24.048Z,45.50
2018-08-13T21:27:52.882Z,45.70
2018-08-13T21:30:52.256Z,45.70
2018-08-13T21:33:20.838Z,45.80
2018-08-13T21:35:49.412Z,45.70
2018-08-13T21:38:17.971Z,45.60
2018-08-13T21:40:46.551Z,45.60
2018-08-13T21:43:15.302Z,45.10
2018-08-13T21:45:43.886Z,45.00
2018-08-13T21:48:12.443Z,44.80
2018-08-13T21:50:41.081Z,44.70
2018-08-13T21:53:09.635Z,44.60
2018-08-13T21:55:38.198Z,44.60
2018-08-13T21:58:06.776Z,44.60
2018-08-13T22:00:40.751Z,44.80
2018-08-13T22:03:10.350Z,44.80
2018-08-13T22:05:38.944Z,44.80
2018-08-13T22:08:07.525Z,44.70
2018-08-13T22:10:36.077Z,44.80
2018-08-13T22:13:04.631Z,44.80
2018-08-13T22:15:33.739Z,44.60
2018-08-13T22:18:04.819Z,44.90
2018-08-13T22:20:34.583Z,44.70
2018-08-13T22:23:04.945Z,44.80
2018-08-13T22:25:35.639Z,44.90
2018-08-13T22:28:06.124Z,45.00
2018-08-13T22:30:39.975Z,44.50
2018-08-13T22:33:09.608Z,45.00
2018-08-13T22:35:38.210Z,45.20
2018-08-13T22:38:07.368Z,45.20
2018-08-13T22:40:36.335Z,45.40
2018-08-13T22:43:05.068Z,45.20
2018-08-13T22:45:33.496Z,45.20
2018-08-13T22:50:37.165Z,45.40
2018-08-13T22:53:05.930Z,45.20
2018-08-13T22:55:34.677Z,45.40
2018-08-13T22:58:03.300Z,45.60
2018-08-13T23:00:31.846Z,45.60
2018-08-13T23:03:00.379Z,45.70
2018-08-13T23:05:29.223Z,45.50
2018-08-13T23:07:57.738Z,45.60
2018-08-13T23:10:26.439Z,45.60
2018-08-13T23:12:56.363Z,45.80
2018-08-13T23:15:25.041Z,45.70
2018-08-13T23:17:54.198Z,45.70
2018-08-13T23:20:24.551Z,45.70
2018-08-13T23:22:57.299Z,45.60
2018-08-13T23:25:26.139Z,45.80
2018-08-13T23:27:55.751Z,46.00
2018-08-13T23:30:24.426Z,46.00
2018-08-13T23:32:54.047Z,46.00
2018-08-13T23:35:23.376Z,46.10
2018-08-13T23:37:52.050Z,46.10
2018-08-13T23:40:20.599Z,46.30
2018-08-13T23:42:49.153Z,46.30
2018-08-13T23:45:20.777Z,46.20
2018-08-13T23:47:49.403Z,46.20
2018-08-13T23:50:20.592Z,46.10
2018-08-13T23:52:50.275Z,46.40
2018-08-13T23:55:26.156Z,46.40
2018-08-13T23:57:55.018Z,46.40
